createdAt,value
2023-03-29T00:00:36.551Z,32.00
2023-03-29T00:03:05.406Z,33.33
2023-03-29T00:05:35.593Z,32.37
2023-03-29T00:08:05.087Z,32.50
2023-03-29T00:10:34.198Z,31.37
2023-03-29T00:13:02.777Z,30.40
2023-03-29T00:15:31.384Z,31.17
2023-03-29T00:17:59.761Z,31.50
2023-03-29T00:20:28.924Z,31.10
2023-03-29T00:22:57.172Z,31.17
2023-03-29T00:25:26.721Z,29.90
2023-03-29T00:27:54.790Z,29.47
2023-03-29T00:30:22.932Z,29.30
2023-03-29T00:32:51.411Z,28.47
2023-03-29T00:35:19.965Z,28.77
2023-03-29T00:37:51.044Z,26.97
2023-03-29T00:40:19.320Z,26.50
2023-03-29T00:42:48.804Z,25.47
2023-03-29T00:45:22.681Z,24.07
2023-03-29T00:47:53.085Z,24.47
2023-03-29T00:50:25.903Z,23.83
2023-03-29T00:53:00.904Z,22.97
2023-03-29T00:55:33.552Z,23.10
2023-03-29T00:58:05.517Z,22.40
2023-03-29T01:00:38.333Z,23.07
2023-03-29T01:03:13.549Z,23.00
2023-03-29T01:05:45.666Z,23.30
2023-03-29T01:08:18.337Z,23.00
2023-03-29T01:10:51.837Z,22.50
2023-03-29T01:13:27.315Z,22.50
2023-03-29T01:15:58.137Z,22.67
2023-03-29T01:18:26.333Z,22.20
2023-03-29T01:21:10.357Z,22.03
2023-03-29T01:23:58.315Z,22.10
2023-03-29T01:26:35.973Z,22.10
2023-03-29T01:29:10.745Z,22.33
2023-03-29T01:31:43.386Z,22.40
2023-03-29T01:34:13.982Z,22.20
2023-03-29T01:36:49.416Z,22.60
2023-03-29T01:39:19.277Z,22.53
2023-03-29T01:41:53.739Z,24.90
2023-03-29T01:44:30.771Z,23.13
2023-03-29T01:47:09.645Z,23.50
2023-03-29T01:49:42.449Z,23.47
2023-03-29T01:52:16.454Z,24.00
2023-03-29T01:54:48.875Z,23.77
2023-03-29T01:57:17.826Z,24.40
2023-03-29T01:59:49.015Z,24.10
2023-03-29T02:02:18.657Z,25.60
2023-03-29T02:04:51.769Z,25.50
2023-03-29T02:07:25.195Z,24.83
2023-03-29T02:09:55.644Z,25.40
2023-03-29T02:12:23.921Z,25.87
2023-03-29T02:14:53.978Z,26.37
2023-03-29T02:17:24.360Z,26.80
2023-03-29T02:19:59.412Z,27.33
2023-03-29T02:22:31.591Z,27.77
2023-03-29T02:25:03.689Z,28.17
2023-03-29T02:27:31.993Z,27.97
2023-03-29T02:30:01.756Z,28.50
2023-03-29T02:32:34.990Z,28.20
2023-03-29T02:35:08.696Z,28.20
2023-03-29T02:37:41.046Z,28.17
2023-03-29T02:40:12.610Z,29.03
2023-03-29T02:42:41.519Z,28.00
2023-03-29T02:45:13.866Z,28.90
2023-03-29T02:47:45.635Z,28.10
2023-03-29T02:50:14.298Z,28.87
2023-03-29T02:52:47.187Z,28.47
2023-03-29T02:55:18.834Z,29.13
2023-03-29T02:57:46.988Z,28.30
2023-03-29T03:00:18.818Z,27.53
2023-03-29T03:02:48.608Z,27.50
2023-03-29T03:05:17.526Z,27.73
2023-03-29T03:07:46.194Z,27.50
2023-03-29T03:10:14.607Z,27.33
2023-03-29T03:12:42.750Z,26.20
2023-03-29T03:15:11.459Z,24.57
2023-03-29T03:17:40.979Z,25.03
2023-03-29T03:20:13.067Z,25.67
2023-03-29T03:22:42.453Z,25.53
2023-03-29T03:25:13.933Z,25.13
2023-03-29T03:27:42.117Z,25.30
2023-03-29T03:30:11.868Z,23.87
2023-03-29T03:32:41.490Z,23.97
2023-03-29T03:35:11.654Z,24.07
2023-03-29T03:37:40.151Z,24.37
2023-03-29T03:40:09.937Z,24.83
2023-03-29T03:42:38.138Z,24.70
2023-03-29T03:45:08.288Z,24.70
2023-03-29T03:47:38.490Z,23.83
2023-03-29T03:50:09.673Z,24.10
2023-03-29T03:52:37.750Z,24.10
2023-03-29T03:55:06.612Z,24.10
2023-03-29T03:57:37.496Z,25.50
2023-03-29T04:00:19.187Z,25.27
2023-03-29T04:02:48.754Z,25.57
2023-03-29T04:05:20.017Z,25.40
2023-03-29T04:07:48.223Z,25.87
2023-03-29T04:10:16.452Z,25.83
2023-03-29T04:12:45.034Z,24.03
2023-03-29T04:15:13.458Z,25.67
2023-03-29T04:17:41.671Z,24.00
2023-03-29T04:20:12.686Z,24.97
2023-03-29T04:22:42.445Z,24.50
2023-03-29T04:25:11.780Z,24.53
2023-03-29T04:27:40.735Z,23.67
2023-03-29T04:30:09.850Z,23.93
2023-03-29T04:32:37.992Z,24.00
2023-03-29T04:35:06.965Z,23.33
2023-03-29T04:37:35.306Z,23.87
2023-03-29T04:40:09.203Z,23.83
2023-03-29T04:42:37.713Z,24.90
2023-03-29T04:45:07.314Z,24.10
2023-03-29T04:47:36.650Z,24.00
2023-03-29T04:50:05.559Z,24.23
2023-03-29T04:52:33.579Z,24.07
2023-03-29T04:55:02.337Z,24.23
2023-03-29T04:57:32.281Z,25.77
2023-03-29T05:00:00.481Z,25.10
2023-03-29T05:02:31.105Z,25.57
2023-03-29T05:04:59.254Z,26.23
2023-03-29T05:07:27.908Z,26.23
2023-03-29T05:09:56.103Z,25.67
2023-03-29T05:12:24.314Z,22.60
2023-03-29T05:14:54.112Z,23.27
2023-03-29T05:17:22.580Z,23.30
2023-03-29T05:19:50.811Z,23.00
2023-03-29T05:22:18.854Z,22.87
2023-03-29T05:24:47.047Z,23.47
2023-03-29T05:27:15.089Z,23.37
2023-03-29T05:29:44.596Z,23.37
2023-03-29T05:32:15.014Z,22.80
2023-03-29T05:34:43.407Z,23.53
2023-03-29T05:37:11.675Z,23.10
2023-03-29T05:39:39.881Z,22.70
2023-03-29T05:42:07.943Z,23.13
2023-03-29T05:44:36.437Z,23.37
2023-03-29T05:47:04.691Z,22.90
2023-03-29T05:49:34.360Z,21.73
2023-03-29T05:52:02.510Z,21.60
2023-03-29T05:54:31.153Z,22.40
2023-03-29T05:56:59.355Z,22.50
2023-03-29T05:59:29.714Z,23.10
2023-03-29T06:02:00.346Z,22.70
2023-03-29T06:04:29.013Z,23.77
2023-03-29T06:07:00.351Z,22.20
2023-03-29T06:09:28.684Z,23.47
2023-03-29T06:11:58.912Z,23.03
2023-03-29T06:14:27.737Z,23.87
2023-03-29T06:16:56.709Z,23.60
2023-03-29T06:19:24.990Z,23.53
2023-03-29T06:21:53.778Z,23.23
2023-03-29T06:24:25.163Z,24.00
2023-03-29T06:26:53.725Z,23.67
2023-03-29T06:29:31.090Z,26.30
2023-03-29T06:31:59.127Z,26.40
2023-03-29T06:34:27.217Z,24.57
2023-03-29T06:36:55.233Z,25.87
2023-03-29T06:39:26.366Z,26.90
2023-03-29T06:41:55.479Z,27.40
2023-03-29T06:44:23.759Z,27.70
2023-03-29T06:46:51.792Z,26.80
2023-03-29T06:49:19.984Z,27.60
2023-03-29T06:51:48.734Z,27.77
2023-03-29T06:54:17.022Z,27.07
2023-03-29T06:56:47.438Z,28.70
2023-03-29T06:59:15.456Z,27.17
2023-03-29T07:01:45.084Z,28.07
2023-03-29T07:04:13.925Z,26.13
2023-03-29T07:06:48.308Z,24.70
2023-03-29T07:09:19.379Z,23.87
2023-03-29T07:11:50.384Z,24.50
2023-03-29T07:14:18.786Z,23.70
2023-03-29T07:16:47.386Z,22.70
2023-03-29T07:19:15.515Z,21.50
2023-03-29T07:21:43.671Z,21.60
2023-03-29T07:24:11.646Z,22.00
2023-03-29T07:26:46.349Z,20.47
2023-03-29T07:29:22.881Z,20.27
2023-03-29T07:31:51.263Z,20.33
2023-03-29T07:34:19.279Z,19.50
2023-03-29T07:36:47.802Z,19.50
2023-03-29T07:39:16.032Z,20.00
2023-03-29T07:41:44.018Z,19.30
2023-03-29T07:44:12.094Z,19.17
2023-03-29T07:46:42.828Z,19.27
2023-03-29T07:49:10.882Z,19.60
2023-03-29T07:51:38.819Z,19.37
2023-03-29T07:54:07.853Z,20.00
2023-03-29T07:56:36.102Z,19.40
2023-03-29T07:59:04.125Z,19.60
2023-03-29T08:01:32.203Z,19.10
2023-03-29T08:04:01.852Z,19.37
2023-03-29T08:06:29.938Z,18.70
2023-03-29T08:08:58.408Z,20.13
2023-03-29T08:11:26.346Z,19.23
2023-03-29T08:13:54.348Z,19.80
2023-03-29T08:16:22.399Z,19.00
2023-03-29T08:18:50.364Z,18.50
2023-03-29T08:21:19.744Z,18.93
2023-03-29T08:23:47.784Z,18.50
2023-03-29T08:26:16.129Z,19.70
2023-03-29T08:28:44.283Z,18.77
2023-03-29T08:31:12.846Z,19.27
2023-03-29T08:33:42.336Z,19.20
2023-03-29T08:36:10.946Z,18.97
2023-03-29T08:38:40.928Z,20.17
2023-03-29T08:41:28.324Z,19.37
2023-03-29T08:44:13.750Z,20.20
2023-03-29T08:46:49.775Z,19.67
2023-03-29T08:49:19.888Z,20.30
2023-03-29T08:51:51.321Z,20.03
2023-03-29T08:54:26.904Z,20.17
2023-03-29T08:56:59.621Z,19.57
2023-03-29T08:59:30.721Z,19.70
2023-03-29T09:02:01.440Z,20.17
2023-03-29T09:04:32.287Z,20.03
2023-03-29T09:07:00.693Z,20.13
2023-03-29T09:09:33.302Z,20.27
2023-03-29T09:12:13.059Z,19.80
2023-03-29T09:14:57.224Z,20.00
2023-03-29T09:17:40.060Z,20.37
2023-03-29T09:20:20.514Z,19.60
2023-03-29T09:22:57.964Z,19.77
2023-03-29T09:25:47.061Z,19.47
2023-03-29T09:28:27.090Z,19.20
2023-03-29T09:31:00.974Z,18.83
2023-03-29T09:33:37.265Z,18.50
2023-03-29T09:36:12.312Z,18.50
2023-03-29T09:38:43.535Z,18.63
2023-03-29T09:41:24.853Z,18.30
2023-03-29T09:43:55.692Z,19.57
2023-03-29T09:46:28.428Z,18.17
2023-03-29T09:48:58.151Z,18.40
2023-03-29T09:51:29.742Z,17.83
2023-03-29T09:54:00.485Z,18.60
2023-03-29T09:56:30.619Z,18.80
2023-03-29T09:58:58.961Z,17.90
2023-03-29T10:01:37.901Z,17.60
2023-03-29T10:04:09.320Z,18.43
2023-03-29T10:06:38.889Z,17.80
2023-03-29T10:09:17.450Z,18.13
2023-03-29T10:11:50.554Z,18.60
2023-03-29T10:14:20.894Z,18.03
2023-03-29T10:16:57.506Z,17.67
2023-03-29T10:19:30.317Z,18.30
2023-03-29T10:22:01.679Z,17.93
2023-03-29T10:24:30.427Z,17.97
2023-03-29T10:27:03.480Z,18.40
2023-03-29T10:29:37.959Z,18.90
2023-03-29T10:32:16.184Z,18.60
2023-03-29T10:34:46.528Z,18.50
2023-03-29T10:37:19.080Z,18.63
2023-03-29T10:39:49.724Z,19.90
2023-03-29T10:42:24.083Z,19.07
2023-03-29T10:44:57.364Z,18.40
2023-03-29T10:47:26.549Z,18.10
2023-03-29T10:49:57.408Z,18.20
2023-03-29T10:52:26.210Z,18.37
2023-03-29T10:54:56.968Z,19.87
2023-03-29T10:57:35.158Z,19.60
2023-03-29T11:00:08.278Z,18.63
2023-03-29T11:03:05.925Z,18.87
2023-03-29T11:05:40.055Z,18.13
2023-03-29T11:08:26.747Z,19.23
2023-03-29T11:11:04.194Z,19.30
2023-03-29T11:13:42.983Z,18.87
2023-03-29T11:16:21.704Z,18.63
2023-03-29T11:19:11.075Z,18.97
2023-03-29T11:21:46.888Z,18.67
2023-03-29T11:24:28.745Z,19.10
2023-03-29T11:27:27.434Z,19.40
2023-03-29T11:30:08.909Z,18.33
2023-03-29T11:32:47.430Z,19.40
2023-03-29T11:35:29.348Z,19.07
2023-03-29T11:38:01.943Z,18.77
2023-03-29T11:40:43.397Z,19.40
2023-03-29T11:43:15.499Z,18.93
2023-03-29T11:45:52.578Z,19.03
2023-03-29T11:48:25.393Z,18.67
2023-03-29T11:50:59.527Z,18.90
2023-03-29T11:53:32.532Z,19.10
2023-03-29T11:56:10.515Z,19.00
2023-03-29T11:58:42.933Z,18.63
2023-03-29T12:01:17.840Z,20.93
2023-03-29T12:03:51.701Z,18.60
2023-03-29T12:06:23.592Z,19.00
2023-03-29T12:08:55.974Z,19.10
2023-03-29T12:11:30.645Z,19.93
2023-03-29T12:14:04.574Z,20.00
2023-03-29T12:16:39.340Z,18.50
2023-03-29T12:19:18.532Z,19.57
2023-03-29T12:21:48.150Z,20.27
2023-03-29T12:24:19.079Z,21.43
2023-03-29T12:27:20.519Z,19.40
2023-03-29T12:30:21.048Z,20.47
2023-03-29T12:33:10.418Z,19.60
2023-03-29T12:35:48.632Z,19.67
2023-03-29T12:38:21.757Z,20.50
2023-03-29T12:40:56.809Z,19.80
2023-03-29T12:43:29.163Z,19.97
2023-03-29T12:46:03.834Z,19.70
2023-03-29T12:48:35.801Z,19.00
2023-03-29T12:51:08.240Z,18.97
2023-03-29T12:53:40.895Z,20.30
2023-03-29T12:56:18.321Z,19.70
2023-03-29T12:59:18.711Z,18.93
2023-03-29T13:02:00.328Z,19.90
2023-03-29T13:04:51.383Z,18.97
2023-03-29T13:07:31.171Z,19.40
2023-03-29T13:10:01.488Z,19.40
2023-03-29T13:12:33.593Z,20.07
2023-03-29T13:15:03.890Z,20.20
2023-03-29T13:17:43.316Z,19.70
2023-03-29T13:20:30.695Z,19.30
2023-03-29T13:23:10.518Z,19.23
2023-03-29T13:25:52.551Z,19.13
2023-03-29T13:28:36.631Z,19.00
2023-03-29T13:31:14.024Z,19.17
2023-03-29T13:34:00.591Z,17.83
2023-03-29T13:36:52.288Z,18.93
2023-03-29T13:39:24.026Z,18.63
2023-03-29T13:41:54.265Z,18.53
2023-03-29T13:44:30.236Z,18.10
2023-03-29T13:47:17.427Z,18.50
2023-03-29T13:49:53.474Z,18.73
2023-03-29T13:52:27.325Z,18.40
2023-03-29T13:55:00.711Z,18.07
2023-03-29T13:57:36.011Z,18.20
2023-03-29T14:00:17.871Z,17.90
2023-03-29T14:02:50.360Z,18.20
2023-03-29T14:05:22.180Z,17.90
2023-03-29T14:07:54.397Z,18.47
2023-03-29T14:10:26.816Z,18.33
2023-03-29T14:12:57.419Z,18.70
2023-03-29T14:15:28.665Z,17.63
2023-03-29T14:18:00.348Z,17.70
2023-03-29T14:20:29.704Z,17.10
2023-03-29T14:22:59.731Z,17.03
2023-03-29T14:25:30.417Z,17.60
2023-03-29T14:27:58.646Z,17.10
2023-03-29T14:30:29.434Z,17.47
2023-03-29T14:32:57.685Z,17.77
2023-03-29T14:35:32.323Z,16.90
2023-03-29T14:38:02.526Z,16.83
2023-03-29T14:40:32.122Z,16.97
2023-03-29T14:43:05.628Z,17.70
2023-03-29T14:45:33.929Z,16.70
2023-03-29T14:48:02.466Z,17.63
2023-03-29T14:50:31.600Z,17.23
2023-03-29T14:53:02.554Z,17.10
2023-03-29T14:55:31.025Z,17.90
2023-03-29T14:58:00.224Z,17.90
2023-03-29T15:00:31.459Z,18.10
2023-03-29T15:03:01.761Z,17.70
2023-03-29T15:05:35.676Z,18.10
2023-03-29T15:08:07.362Z,17.60
2023-03-29T15:10:37.745Z,17.63
2023-03-29T15:13:07.750Z,17.93
2023-03-29T15:15:39.156Z,18.00
2023-03-29T15:18:09.145Z,17.50
2023-03-29T15:20:39.989Z,17.80
2023-03-29T15:23:22.654Z,17.50
2023-03-29T15:25:54.957Z,17.60
2023-03-29T15:28:28.978Z,17.27
2023-03-29T15:33:35.870Z,17.27
2023-03-29T15:36:05.720Z,16.90
2023-03-29T15:38:43.030Z,17.57
2023-03-29T15:41:11.903Z,17.40
2023-03-29T15:43:40.103Z,17.10
2023-03-29T15:46:08.621Z,17.53
2023-03-29T15:48:37.402Z,17.93
2023-03-29T15:51:06.920Z,17.30
2023-03-29T15:53:36.696Z,18.30
2023-03-29T15:56:08.035Z,17.73
2023-03-29T15:58:37.958Z,18.13
2023-03-29T16:01:16.020Z,17.53
2023-03-29T16:03:47.622Z,17.60
2023-03-29T16:06:17.608Z,17.20
2023-03-29T16:08:50.624Z,17.30
2023-03-29T16:11:18.807Z,16.67
2023-03-29T16:13:47.021Z,16.87
2023-03-29T16:16:15.135Z,17.20
2023-03-29T16:18:43.568Z,17.20
2023-03-29T16:21:14.811Z,17.70
2023-03-29T16:23:43.980Z,17.80
2023-03-29T16:26:16.041Z,18.40
2023-03-29T16:28:44.625Z,18.80
2023-03-29T16:31:13.816Z,19.10
2023-03-29T16:33:42.490Z,19.57
2023-03-29T16:36:11.128Z,19.63
2023-03-29T16:38:39.236Z,20.73
2023-03-29T16:41:08.089Z,19.30
2023-03-29T16:43:38.759Z,19.70
2023-03-29T16:46:08.931Z,19.40
2023-03-29T16:48:37.343Z,19.35
2023-03-29T16:51:06.232Z,18.83
2023-03-29T16:53:34.715Z,19.00
2023-03-29T16:56:03.306Z,19.13
2023-03-29T16:58:31.459Z,20.47
2023-03-29T17:01:09.668Z,19.63
2023-03-29T17:03:37.991Z,20.10
2023-03-29T17:06:07.621Z,20.30
2023-03-29T17:08:35.932Z,21.10
2023-03-29T17:11:04.305Z,21.43
2023-03-29T17:13:32.447Z,20.60
2023-03-29T17:16:02.532Z,19.47
2023-03-29T17:18:30.942Z,19.57
2023-03-29T17:21:00.044Z,19.80
2023-03-29T17:23:28.187Z,19.90
2023-03-29T17:25:56.630Z,19.30
2023-03-29T17:28:25.093Z,20.30
2023-03-29T17:30:53.444Z,19.83
2023-03-29T17:33:26.298Z,19.83
2023-03-29T17:35:54.486Z,19.27
2023-03-29T17:38:22.845Z,19.67
2023-03-29T17:40:54.708Z,19.40
2023-03-29T17:43:23.050Z,19.20
2023-03-29T17:45:55.592Z,19.43
2023-03-29T17:48:25.839Z,19.07
2023-03-29T17:50:56.580Z,18.77
2023-03-29T17:53:25.077Z,19.47
2023-03-29T17:55:53.358Z,19.60
2023-03-29T17:58:21.694Z,19.63
2023-03-29T18:00:50.030Z,20.17
2023-03-29T18:03:18.534Z,20.97
2023-03-29T18:05:48.112Z,22.25
2023-03-29T18:08:16.884Z,21.50
2023-03-29T18:10:45.150Z,21.93
2023-03-29T18:13:14.705Z,22.70
2023-03-29T18:15:44.096Z,23.30
2023-03-29T18:18:12.361Z,25.13
2023-03-29T18:20:40.673Z,23.40
2023-03-29T18:23:10.359Z,23.07
2023-03-29T18:25:38.757Z,22.80
2023-03-29T18:28:07.105Z,25.17
2023-03-29T18:30:36.266Z,26.30
2023-03-29T18:33:04.592Z,27.07
2023-03-29T18:35:32.825Z,26.27
2023-03-29T18:38:01.420Z,28.10
2023-03-29T18:40:31.178Z,29.20
2023-03-29T18:42:59.334Z,29.23
2023-03-29T18:45:28.779Z,29.43
2023-03-29T18:47:57.132Z,31.00
2023-03-29T18:50:25.473Z,32.13
2023-03-29T18:52:53.950Z,32.80
2023-03-29T18:55:22.195Z,34.13
2023-03-29T18:57:51.622Z,33.80
2023-03-29T19:00:20.442Z,34.80
2023-03-29T19:02:48.979Z,34.73
2023-03-29T19:05:17.415Z,35.77
2023-03-29T19:07:45.655Z,35.47
2023-03-29T19:10:14.223Z,35.93
2023-03-29T19:12:42.440Z,36.53
2023-03-29T19:15:13.778Z,35.87
2023-03-29T19:17:42.012Z,36.07
2023-03-29T19:20:12.005Z,38.07
2023-03-29T19:22:41.064Z,39.17
2023-03-29T19:25:10.549Z,39.20
2023-03-29T19:27:38.981Z,41.13
2023-03-29T19:30:09.207Z,42.17
2023-03-29T19:32:38.975Z,43.07
2023-03-29T19:35:08.201Z,47.63
2023-03-29T19:37:36.492Z,44.40
2023-03-29T19:40:06.652Z,45.20
2023-03-29T19:42:35.807Z,47.87
2023-03-29T19:45:04.996Z,49.50
2023-03-29T19:47:33.222Z,51.27
2023-03-29T19:50:04.311Z,53.57
2023-03-29T19:52:32.866Z,53.60
2023-03-29T19:55:01.403Z,54.70
2023-03-29T19:57:30.809Z,53.37
2023-03-29T19:59:59.170Z,54.47
2023-03-29T20:02:27.449Z,55.23
2023-03-29T20:04:57.686Z,55.87
2023-03-29T20:07:27.310Z,55.00
2023-03-29T20:09:55.735Z,57.47
2023-03-29T20:12:23.894Z,57.33
2023-03-29T20:14:52.030Z,59.30
2023-03-29T20:17:20.186Z,57.37
2023-03-29T20:19:48.278Z,60.47
2023-03-29T20:22:16.387Z,59.63
2023-03-29T20:24:46.152Z,62.80
2023-03-29T20:27:15.818Z,63.93
2023-03-29T20:29:43.942Z,63.47
2023-03-29T20:32:12.341Z,62.33
2023-03-29T20:34:40.870Z,60.53
2023-03-29T20:37:09.115Z,61.60
2023-03-29T20:39:37.275Z,59.70
2023-03-29T20:42:07.402Z,61.20
2023-03-29T20:44:35.624Z,61.13
2023-03-29T20:47:04.999Z,61.70
2023-03-29T20:49:37.300Z,60.83
2023-03-29T20:52:08.404Z,59.97
2023-03-29T20:54:37.522Z,62.77
2023-03-29T20:57:07.871Z,60.17
2023-03-29T20:59:37.984Z,63.40
2023-03-29T21:02:06.416Z,57.73
2023-03-29T21:04:35.059Z,61.10
2023-03-29T21:07:05.040Z,64.13
2023-03-29T21:09:34.171Z,58.17
2023-03-29T21:12:02.840Z,56.87
2023-03-29T21:14:33.128Z,58.37
2023-03-29T21:17:01.461Z,59.33
2023-03-29T21:19:29.726Z,59.40
2023-03-29T21:21:58.157Z,59.70
2023-03-29T21:24:26.420Z,56.77
2023-03-29T21:26:54.753Z,58.30
2023-03-29T21:29:22.964Z,59.83
2023-03-29T21:31:52.484Z,58.70
2023-03-29T21:34:20.671Z,59.40
2023-03-29T21:36:48.895Z,60.00
2023-03-29T21:39:16.994Z,60.17
2023-03-29T21:41:45.141Z,60.20
2023-03-29T21:44:13.279Z,61.50
2023-03-29T21:46:41.491Z,61.20
2023-03-29T21:49:12.047Z,61.00
2023-03-29T21:51:39.998Z,60.03
2023-03-29T21:54:08.339Z,58.70
2023-03-29T21:56:36.607Z,58.60
2023-03-29T21:59:05.408Z,55.10
2023-03-29T22:01:33.536Z,53.70
2023-03-29T22:04:01.842Z,53.30
2023-03-29T22:06:31.541Z,52.63
2023-03-29T22:09:00.755Z,51.43
2023-03-29T22:11:29.586Z,50.87
2023-03-29T22:13:58.219Z,48.00
2023-03-29T22:16:28.352Z,46.43
2023-03-29T22:18:56.501Z,46.03
2023-03-29T22:21:26.796Z,44.20
2023-03-29T22:23:57.655Z,41.90
2023-03-29T22:26:28.281Z,41.27
2023-03-29T22:28:57.137Z,41.63
2023-03-29T22:31:27.072Z,37.57
2023-03-29T22:33:55.644Z,37.80
2023-03-29T22:36:25.493Z,37.77
2023-03-29T22:38:54.036Z,35.00
2023-03-29T22:41:24.851Z,35.27
2023-03-29T22:43:53.575Z,33.20
2023-03-29T22:46:22.388Z,33.63
2023-03-29T22:48:51.100Z,34.30
2023-03-29T22:51:19.576Z,32.73
2023-03-29T22:53:47.668Z,31.37
2023-03-29T22:56:16.384Z,31.03
2023-03-29T22:58:46.012Z,29.30
2023-03-29T23:01:14.593Z,30.30
2023-03-29T23:03:42.693Z,30.47
2023-03-29T23:06:11.062Z,29.30
2023-03-29T23:08:39.387Z,29.87
2023-03-29T23:11:08.132Z,29.30
2023-03-29T23:13:36.281Z,27.37
2023-03-29T23:16:06.411Z,27.80
2023-03-29T23:18:37.392Z,27.80
2023-03-29T23:21:07.588Z,28.13
2023-03-29T23:23:36.843Z,28.03
2023-03-29T23:26:05.569Z,28.17
2023-03-29T23:28:34.552Z,27.70
2023-03-29T23:31:06.564Z,27.37
2023-03-29T23:33:36.215Z,26.17
2023-03-29T23:36:07.628Z,24.93
2023-03-29T23:38:38.647Z,24.73
2023-03-29T23:41:08.522Z,27.27
2023-03-29T23:43:40.591Z,24.37
2023-03-29T23:46:13.125Z,24.67
2023-03-29T23:48:44.608Z,24.10
2023-03-29T23:51:13.234Z,24.77
2023-03-29T23:53:41.311Z,23.70
2023-03-29T23:56:09.491Z,23.13
2023-03-29T23:58:39.044Z,22.60
